Latest Coastal Weather Observations for Flinders Island Airport

IDT60701

Issued at 6:25 am EST Thursday 24 April 2014 (issued every 10 minutes, with the page automatically refreshed every 10 minutes)

About coastal observations | Map of coastal stations | Coastal observations for TAS | Marine services | Other Formats
Station Details ID: 099005 Name: FLINDERS ISLAND AIRPORT Lat: -40.09 Lon: 148.00 Height: 9.0 m
Data from the previous 72 hours. | See also: Recent months at Flinders Island Airport
Date/Time
EST
Temp

°C
Wind Pressure Rain
since 9am
mm
Weather Cloud Vis
km
Sea
Height
m
Swell
Dir
 
Speed
knots
Gust
knots
hPa Trend Height
m
Period
s
Dir
24/06:00am 16.4 NW 20 30 1005.9 - 0.0 - Cloudy 10 - - - -
24/05:43am 16.2 NW 18 28 1005.9 - 0.0 - Partly cloudy 10 - - - -
24/05:30am 15.9 NW 17 24 1005.9 - 0.0 - Partly cloudy 10 - - - -
24/05:00am 15.2 NNW 12 17 1006.0 - 0.0 - Partly cloudy 10 - - - -
24/04:30am 14.9 NNW 13 20 1006.2 - 0.0 - - 10 - - - -
24/04:00am 14.7 NNW 11 16 1006.4 - 0.0 - - 10 - - - -
24/03:30am 14.5 NNW 9 15 1006.9 - 0.0 - - 10 - - - -
24/03:00am 14.3 NNW 9 17 1007.5 - 0.0 - - 10 - - - -
24/02:30am 14.2 NNW 8 13 1008.0 - 0.0 - - 10 - - - -
24/02:00am 14.2 NNW 8 11 1008.6 - 0.0 - - 10 - - - -
24/01:30am 14.2 NNW 8 12 1009.2 - 0.0 - Partly cloudy 10 - - - -
24/01:00am 14.3 NNW 8 11 1009.6 - 0.0 - Partly cloudy 10 - - - -
24/12:30am 14.3 NNW 7 10 1009.9 - 0.0 - Partly cloudy 10 - - - -
24/12:00am 13.7 NNW 7 9 1010.2 - 0.0 - Partly cloudy 10 - - - -
 
Date/Time
EST
Temp

°C
Wind Pressure Rain
since 9am
mm
Weather Cloud Vis
km
Sea
Height
m
Swell
Dir
 
Speed
knots
Gust
knots
hPa Trend Height
m
Period
s
Dir
23/11:30pm 14.1 NW 9 12 1010.6 - 0.0 - - 10 - - - -
23/11:00pm 13.8 NW 8 12 1011.1 - 0.0 - Partly cloudy 10 - - - -
23/10:30pm 13.6 N 6 8 1011.5 - 0.0 - Partly cloudy 10 - - - -
23/10:00pm 13.6 N 6 8 1011.7 - 0.0 - Partly cloudy 10 - - - -
23/09:30pm 13.8 N 7 9 1011.9 - 0.0 - - 10 - - - -
23/09:00pm 13.8 N 7 8 1012.2 - 0.0 - Mostly clear 10 - - - -
23/08:30pm 14.2 NNW 6 7 1012.2 - 0.0 - Partly cloudy 10 - - - -
23/08:00pm 14.2 N 7 9 1012.5 - 0.0 - Partly cloudy 10 - - - -
23/07:30pm 13.9 N 7 8 1012.7 - 0.0 - - 10 - - - -
23/07:00pm 13.9 N 6 8 1012.7 - 0.0 - Partly cloudy 10 - - - -
23/06:30pm 13.7 N 6 7 1012.7 - 0.0 - - 10 - - - -
23/06:00pm 14.0 N 6 7 1012.6 - 0.0 - - 10 - - - -
23/05:30pm 14.9 NNW 5 7 1012.5 - 0.0 - Partly cloudy 10 - - - -
23/05:00pm 15.5 WNW 9 13 1012.6 - 0.0 - Partly cloudy 10 - - - -
23/04:30pm 15.8 NW 10 14 1012.6 - 0.0 - Partly cloudy 10 - - - -
23/04:00pm 16.2 WNW 10 15 1012.7 - 0.0 - Partly cloudy 10 - - - -
23/03:30pm 16.2 NW 10 13 1012.8 - 0.0 - Partly cloudy 10 - - - -
23/03:00pm 17.5 NW 11 15 1013.0 - 0.0 - Cloudy 10 - - - -
23/02:30pm 16.3 WNW 9 12 1013.2 - 0.0 - Partly cloudy 10 - - - -
23/02:00pm 16.7 NW 12 16 1013.2 - 0.0 - Partly cloudy 10 - - - -
23/01:30pm 16.4 WNW 11 15 1013.4 - 0.0 - Partly cloudy 10 - - - -
23/01:00pm 17.2 WNW 9 13 1013.8 - 0.0 - Partly cloudy 10 - - - -
23/12:30pm 16.8 WNW 10 14 1014.2 - 0.0 - Partly cloudy 10 - - - -
23/12:00pm 17.0 WNW 9 12 1014.7 - 0.0 - Cloudy 10 - - - -
23/11:30am 16.3 W 8 10 1015.1 - 0.0 - Partly cloudy 10 - - - -
23/11:00am 16.8 W 9 11 1015.4 - 0.0 - Partly cloudy 10 - - - -
23/10:30am 16.0 WNW 6 8 1015.8 - 0.0 - Partly cloudy 10 - - - -
23/10:00am 16.0 NNW 6 8 1016.0 - 0.0 - Partly cloudy 10 - - - -
23/09:30am 14.8 N 7 9 1016.2 - 0.0 - Partly cloudy 10 - - - -
23/09:00am 13.8 ENE 4 4 1016.2 - 0.0 - Cloudy 10 - - - -
23/08:30am 12.2 ENE 6 6 1016.3 - 0.0 - Partly cloudy 10 - - - -
23/08:00am 11.4 NE 5 6 1016.2 - 0.0 - Partly cloudy 10 - - - -
23/07:30am 9.7 ENE 6 7 1016.1 - 0.0 - Cloudy 10 - - - -
23/07:00am 8.5 ENE 7 7 1015.9 - 0.0 - Partly cloudy 10 - - - -
23/06:30am 8.8 NE 6 7 1015.8 - 0.0 - Partly cloudy 10 - - - -
23/06:00am 7.9 ENE 7 8 1015.7 - 0.0 - Mostly clear 10 - - - -
23/05:30am 8.3 NE 6 8 1015.6 - 0.0 - Partly cloudy 10 - - - -
23/05:00am 8.9 NE 5 8 1015.6 - 0.0 - Partly cloudy 10 - - - -
23/04:30am 8.1 NE 5 7 1015.6 - 0.0 - Partly cloudy 10 - - - -
23/04:00am 10.9 W 9 12 1015.4 - 0.0 - - 10 - - - -
23/03:30am 13.5 W 10 12 1015.4 - 0.0 - Partly cloudy 10 - - - -
23/03:00am 14.2 WSW 12 15 1015.4 - 0.0 - - 10 - - - -
23/02:30am 13.9 W 12 15 1015.7 - 0.0 - Partly cloudy 10 - - - -
23/02:00am 14.0 W 12 16 1015.9 - 0.0 - - 10 - - - -
23/01:30am 13.8 WSW 12 15 1015.9 - 0.0 - - 10 - - - -
23/01:00am 13.9 WSW 12 15 1016.0 - 0.0 - - 10 - - - -
23/12:30am 14.0 WSW 16 19 1016.1 - 0.0 - - 10 - - - -
23/12:00am 14.0 WSW 15 18 1016.0 - 0.0 - - 10 - - - -
 
Date/Time
EST
Temp

°C
Wind Pressure Rain
since 9am
mm
Weather Cloud Vis
km
Sea
Height
m
Swell
Dir
 
Speed
knots
Gust
knots
hPa Trend Height
m
Period
s
Dir
22/11:30pm 14.3 WSW 16 20 1016.1 - 0.0 - - 10 - - - -
22/11:00pm 14.3 WSW 18 21 1016.1 - 0.0 - - 10 - - - -
22/10:30pm 14.7 WSW 17 20 1016.0 - 0.0 - - 10 - - - -
22/10:00pm 14.6 WSW 17 20 1015.9 - 0.0 - - 10 - - - -
22/09:30pm 14.8 WSW 17 21 1015.8 - 0.0 - - 10 - - - -
22/09:00pm 15.1 W 19 25 1015.3 - 0.0 - Mostly clear 10 - - - -
22/08:30pm 15.2 W 19 24 1014.9 - 0.0 - Partly cloudy 10 - - - -
22/08:00pm 15.2 W 19 23 1014.7 - 0.0 - Partly cloudy 10 - - - -
22/07:30pm 15.1 W 19 23 1014.5 - 0.0 - Partly cloudy 10 - - - -
22/07:00pm 15.2 W 18 22 1014.3 - 0.0 - Partly cloudy 10 - - - -
22/06:30pm 15.4 W 21 26 1013.8 - 0.0 - Partly cloudy 10 - - - -
22/06:00pm 15.4 W 20 25 1013.4 - 0.0 - Mostly clear 10 - - - -
22/05:30pm 15.4 W 17 21 1013.0 - 0.0 - Partly cloudy 10 - - - -
22/05:00pm 15.7 W 20 25 1012.8 - 0.0 - Partly cloudy 10 - - - -
22/04:30pm 16.2 W 19 24 1012.4 - 0.0 - Partly cloudy 10 - - - -
22/04:00pm 16.8 W 17 22 1012.2 - 0.0 - Partly cloudy 10 - - - -
22/03:30pm 17.5 W 16 21 1011.8 - 0.0 - Partly cloudy 10 - - - -
22/03:00pm 17.1 W 18 22 1011.6 - 0.0 - Cloudy 10 - - - -
22/02:32pm 17.0 W 18 23 1011.6 - 0.0 - Partly cloudy 10 - - - -
22/02:30pm 16.9 W 18 23 1011.6 - 0.0 - Partly cloudy 10 - - - -
22/02:00pm 17.0 W 20 25 1011.4 - 0.0 - Partly cloudy 10 - - - -
22/01:56pm 16.9 W 21 26 1011.4 - 0.0 - Partly cloudy 10 - - - -
22/01:54pm 17.2 W 21 26 1011.4 - 0.0 - Partly cloudy 10 - - - -
22/01:30pm 17.4 WNW 20 29 1011.1 - 0.0 - Partly cloudy 10 - - - -
22/01:26pm 17.5 WNW 21 31 1011.2 - 0.0 - Partly cloudy 10 - - - -
22/01:00pm 17.3 WNW 21 29 1011.5 - 0.0 - Partly cloudy 10 - - - -
22/12:53pm 17.2 WNW 20 30 1011.6 - 0.0 - Partly cloudy 10 - - - -
22/12:30pm 16.8 NW 21 29 1011.7 - 0.0 - Partly cloudy 10 - - - -
22/12:00pm 16.7 WNW 19 27 1012.0 - 0.0 - Cloudy 10 - - - -
22/11:38am 16.8 NW 19 29 1012.1 - 0.0 - Partly cloudy 10 - - - -
22/11:31am 16.7 WNW 20 28 1012.1 - 0.0 - Partly cloudy 10 - - - -
22/11:30am 16.8 WNW 20 28 1012.1 - 0.0 - Partly cloudy 10 - - - -
22/11:00am 16.8 NW 20 27 1012.2 - 0.0 - Partly cloudy 10 - - - -
22/10:30am 16.3 NW 20 27 1012.2 - 0.0 - Partly cloudy 10 - - - -
22/10:00am 16.1 NW 23 30 1012.4 - 0.0 - Partly cloudy 10 - - - -
22/09:46am 16.3 NW 22 32 1012.2 - 0.0 - Partly cloudy 10 - - - -
22/09:30am 16.3 NW 22 31 1012.3 - 0.0 - Partly cloudy 10 - - - -
22/09:01am 16.2 WNW 25 38 1012.7 - 0.0 - Partly cloudy 10 - - - -
22/09:00am 16.3 WNW 25 33 1012.7 - 3.0 - Cloudy 10 - - - -
22/08:50am 16.2 WNW 26 36 1012.7 - 3.0 - Partly cloudy 10 - - - -
22/08:40am 15.9 WNW 21 31 1012.8 - 3.0 - Partly cloudy 10 - - - -
22/08:32am 15.8 WNW 21 30 1012.8 - 2.8 - Partly cloudy 9 - - - -
22/08:30am 15.8 WNW 21 30 1012.8 - 2.8 - Partly cloudy 10 - - - -
22/08:00am 15.9 WNW 19 29 1012.2 - 2.6 - Partly cloudy 10 - - - -
22/07:30am 16.3 WNW 25 35 1012.3 - 2.6 - Partly cloudy 10 - - - -
22/07:12am 16.6 WNW 23 33 1012.4 - 2.6 - Partly cloudy 10 - - - -
22/07:00am 16.7 WNW 22 30 1011.9 - 2.6 - Partly cloudy 10 - - - -
22/06:30am 16.3 WNW 17 27 1011.5 - 2.6 - Partly cloudy 10 - - - -
22/06:29am 16.2 WNW 17 27 1011.6 - 2.6 - Partly cloudy 10 - - - -
22/06:27am 16.2 WNW 15 24 1011.7 - 2.6 - Partly cloudy 10 - - - -
22/06:00am 15.8 NW 8 12 1011.1 - 2.6 - Partly cloudy 10 - - - -
22/05:30am 15.5 NW 12 17 1011.2 - 2.6 - Partly cloudy 9 - - - -
22/05:00am 15.8 NW 22 28 1011.6 - 2.2 - Partly cloudy 7 - - - -
22/04:31am 17.1 NW 21 34 1011.7 - 1.6 - Partly cloudy 10 - - - -
22/04:30am 17.1 NW 21 30 1011.7 - 1.6 - Partly cloudy 10 - - - -
22/04:27am 17.2 NW 18 28 1011.6 - 1.6 - Partly cloudy 10 - - - -
22/04:00am 16.7 NNW 11 19 1011.3 - 1.2 - Partly cloudy 10 - - - -
22/03:30am 18.1 NNW 12 17 1011.0 - 0.8 - Partly cloudy 10 - - - -
22/03:00am 18.5 NNW 9 14 1010.8 - 0.8 - Cloudy 10 - - - -
22/02:30am 18.8 NNW 10 15 1011.5 - 0.8 - Partly cloudy 10 - - - -
22/02:00am 18.9 NNW 9 15 1011.7 - 0.8 - Partly cloudy 10 - - - -
22/01:30am 18.4 NNW 12 18 1012.0 - 0.8 - Partly cloudy 10 - - - -
22/01:00am 18.3 N 10 16 1012.1 - 0.8 - Partly cloudy 10 - - - -
22/12:30am 18.1 N 15 21 1012.1 - 0.8 - Partly cloudy 10 - - - -
22/12:00am 17.6 N 18 23 1012.1 - 0.8 - Cloudy 10 - - - -
 
Date/Time
EST
Temp

°C
Wind Pressure Rain
since 9am
mm
Weather Cloud Vis
km
Sea
Height
m
Swell
Dir
 
Speed
knots
Gust
knots
hPa Trend Height
m
Period
s
Dir
21/11:30pm 17.3 NNE 19 25 1012.0 - 0.8 - Cloudy 10 - - - -
21/11:00pm 17.3 NNE 19 26 1012.4 - 0.8 - Cloudy 10 - - - -
21/10:30pm 17.3 NNE 20 27 1012.9 - 0.8 - Cloudy 10 - - - -
21/10:00pm 17.3 NNE 19 27 1013.4 - 0.8 - Cloudy 10 - - - -
21/09:30pm 17.3 NNE 21 29 1013.4 - 0.8 - Partly cloudy 10 - - - -
21/09:00pm 17.1 NNE 20 27 1013.4 - 0.8 - Mostly cloudy 10 - - - -
21/08:33pm 17.1 NNE 21 32 1013.2 - 0.8 - Cloudy 10 - - - -
21/08:30pm 17.2 NNE 20 27 1013.3 - 0.8 - Cloudy 10 - - - -
21/08:03pm 17.1 NNE 17 27 1013.1 - 0.8 - Partly cloudy 10 - - - -
21/08:00pm 17.1 NNE 19 27 1013.0 - 0.8 - Partly cloudy 10 - - - -
21/07:44pm 16.8 NNE 19 30 1013.1 - 0.8 - Partly cloudy 10 - - - -
21/07:30pm 16.9 NNE 17 24 1013.5 - 0.8 - Partly cloudy 10 - - - -
21/07:00pm 16.3 NNE 13 18 1014.0 - 0.8 - Partly cloudy 10 - - - -
21/06:30pm 15.9 NNE 11 16 1014.2 - 0.8 - Partly cloudy 10 - - - -
21/06:00pm 15.5 NNE 8 13 1014.4 - 0.8 - Mostly cloudy 10 - - - -
21/05:30pm 15.5 N 9 14 1014.6 - 0.8 - Partly cloudy 10 - - - -
21/05:00pm 15.5 N 7 10 1014.9 - 0.8 - Partly cloudy 10 - - - -
21/04:30pm 15.2 N 7 11 1015.7 - 0.8 - Partly cloudy 10 - - - -
21/04:00pm 15.6 N 7 10 1016.0 - 0.6 - Partly cloudy 10 - - - -
21/03:30pm 15.8 N 7 10 1016.1 - 0.4 - Partly cloudy 10 - - - -
21/03:00pm 15.9 N 6 8 1016.0 - 0.4 - Cloudy 10 - - - -
21/02:30pm 17.3 N 7 9 1016.2 - 0.0 - Partly cloudy 10 - - - -
21/02:00pm 17.3 N 8 10 1016.2 - 0.0 - Partly cloudy 10 - - - -
21/01:30pm 17.5 N 8 13 1016.3 - 0.0 - Partly cloudy 10 - - - -
21/01:00pm 17.7 NNW 9 13 1016.5 - 0.0 - Partly cloudy 10 - - - -
21/12:30pm 17.8 NNW 9 11 1016.9 - 0.0 - Partly cloudy 10 - - - -
21/12:00pm 17.9 NW 9 13 1017.3 - 0.0 - Mostly clear 10 - - - -
21/11:30am 17.6 NNW 9 14 1017.7 - 0.0 - Partly cloudy 10 - - - -
21/11:10am 16.7 NW 9 12 1018.0 - 0.0 - Partly cloudy 10 - - - -
21/11:00am 16.6 NW 9 12 1018.1 - 0.0 - Partly cloudy 10 - - - -
21/10:30am 16.4 NW 8 11 1018.3 - 0.0 - Partly cloudy 10 - - - -
21/10:26am 16.5 NW 8 11 1018.2 - 0.0 - Partly cloudy 10 - - - -
21/10:14am 16.3 NW 6 9 1018.2 - 0.0 - Partly cloudy 10 - - - -
21/10:00am 15.8 N 5 8 1018.4 - 0.0 - Partly cloudy 10 - - - -
21/09:41am 14.8 NE 7 8 1018.5 - 0.0 - Partly cloudy 10 - - - -
21/09:30am 14.6 NE 7 9 1018.6 - 0.0 - Partly cloudy 10 - - - -
21/09:00am 13.9 NNE 6 8 1019.0 - 2.4 - Mostly cloudy 10 - - - -
21/08:30am 14.1 ENE 6 7 1018.9 - 2.4 - Cloudy 10 - - - -
21/08:22am 13.8 ENE 5 6 1019.0 - 2.4 - Cloudy 10 - - - -
21/08:00am 13.2 NE 6 7 1018.9 - 2.4 - Partly cloudy 10 - - - -
21/07:30am 12.7 NE 4 5 1018.5 - 2.4 - Cloudy 10 - - - -
21/07:00am 12.4 NE 2 4 1018.2 - 2.4 - Partly cloudy 10 - - - -
21/06:30am 12.2 ENE 5 6 1018.0 - 2.4 - Partly cloudy 10 - - - -

Other Formats:

Comma delimited format used in spreadsheet applications
http://www.bom.gov.au/fwo/IDT60701/IDT60701.94980.axf

JavaScript Object Notation format (JSON) in row-major order
http://www.bom.gov.au/fwo/IDT60701/IDT60701.94980.json